sensor_id;sensor_type;location;lat;lon;timestamp;P1;durP1;ratioP1;P2;durP2;ratioP2
80584;SDS011;70137;56.482;9.154;2023-12-20T00:01:18;21.70;;;2.92;;
80584;SDS011;70137;56.482;9.154;2023-12-20T00:03:44;21.45;;;2.63;;
80584;SDS011;70137;56.482;9.154;2023-12-20T00:06:09;17.98;;;2.08;;
80584;SDS011;70137;56.482;9.154;2023-12-20T00:08:35;14.25;;;2.38;;
80584;SDS011;70137;56.482;9.154;2023-12-20T00:11:01;19.98;;;2.10;;
80584;SDS011;70137;56.482;9.154;2023-12-20T00:13:26;21.52;;;2.92;;
80584;SDS011;70137;56.482;9.154;2023-12-20T00:15:51;19.00;;;1.90;;
80584;SDS011;70137;56.482;9.154;2023-12-20T00:18:17;10.88;;;1.77;;
80584;SDS011;70137;56.482;9.154;2023-12-20T00:20:42;21.73;;;2.33;;
80584;SDS011;70137;56.482;9.154;2023-12-20T00:23:07;19.45;;;2.33;;
80584;SDS011;70137;56.482;9.154;2023-12-20T00:25:33;15.73;;;1.85;;
80584;SDS011;70137;56.482;9.154;2023-12-20T00:28:00;12.48;;;1.73;;
80584;SDS011;70137;56.482;9.154;2023-12-20T00:30:25;25.80;;;1.88;;
80584;SDS011;70137;56.482;9.154;2023-12-20T00:32:50;13.07;;;1.50;;
80584;SDS011;70137;56.482;9.154;2023-12-20T00:35:16;15.25;;;2.28;;
80584;SDS011;70137;56.482;9.154;2023-12-20T00:37:44;11.10;;;1.67;;
80584;SDS011;70137;56.482;9.154;2023-12-20T00:40:10;14.15;;;2.20;;
80584;SDS011;70137;56.482;9.154;2023-12-20T00:42:36;13.13;;;1.60;;
80584;SDS011;70137;56.482;9.154;2023-12-20T00:45:01;15.30;;;2.00;;
80584;SDS011;70137;56.482;9.154;2023-12-20T00:47:27;16.52;;;2.42;;
80584;SDS011;70137;56.482;9.154;2023-12-20T00:49:52;15.85;;;2.25;;
80584;SDS011;70137;56.482;9.154;2023-12-20T00:52:18;12.82;;;1.70;;
80584;SDS011;70137;56.482;9.154;2023-12-20T00:54:44;8.07;;;2.33;;
80584;SDS011;70137;56.482;9.154;2023-12-20T00:57:09;10.07;;;1.92;;
80584;SDS011;70137;56.482;9.154;2023-12-20T00:59:35;11.18;;;1.52;;
80584;SDS011;70137;56.482;9.154;2023-12-20T01:02:00;11.75;;;1.90;;
80584;SDS011;70137;56.482;9.154;2023-12-20T01:04:25;19.20;;;2.38;;
80584;SDS011;70137;56.482;9.154;2023-12-20T01:06:51;11.15;;;1.77;;
80584;SDS011;70137;56.482;9.154;2023-12-20T01:09:17;20.05;;;1.65;;
80584;SDS011;70137;56.482;9.154;2023-12-20T01:11:43;13.25;;;1.50;;
80584;SDS011;70137;56.482;9.154;2023-12-20T01:14:09;11.35;;;1.65;;
80584;SDS011;70137;56.482;9.154;2023-12-20T01:16:34;12.02;;;1.65;;
80584;SDS011;70137;56.482;9.154;2023-12-20T01:18:59;8.95;;;1.30;;
80584;SDS011;70137;56.482;9.154;2023-12-20T01:21:25;7.05;;;1.17;;
80584;SDS011;70137;56.482;9.154;2023-12-20T01:23:50;8.93;;;1.55;;
80584;SDS011;70137;56.482;9.154;2023-12-20T01:26:15;11.65;;;1.27;;
80584;SDS011;70137;56.482;9.154;2023-12-20T01:28:41;13.05;;;1.60;;
80584;SDS011;70137;56.482;9.154;2023-12-20T01:31:07;15.85;;;1.80;;
80584;SDS011;70137;56.482;9.154;2023-12-20T01:33:32;10.88;;;1.77;;
80584;SDS011;70137;56.482;9.154;2023-12-20T01:35:57;13.20;;;1.50;;
80584;SDS011;70137;56.482;9.154;2023-12-20T01:38:23;13.13;;;1.50;;
80584;SDS011;70137;56.482;9.154;2023-12-20T01:40:48;9.75;;;1.17;;
80584;SDS011;70137;56.482;9.154;2023-12-20T01:43:13;7.68;;;1.23;;
80584;SDS011;70137;56.482;9.154;2023-12-20T01:45:39;4.70;;;1.17;;
80584;SDS011;70137;56.482;9.154;2023-12-20T01:48:05;9.30;;;0.98;;
80584;SDS011;70137;56.482;9.154;2023-12-20T01:50:32;14.25;;;1.77;;
80584;SDS011;70137;56.482;9.154;2023-12-20T01:53:01;12.30;;;1.17;;
80584;SDS011;70137;56.482;9.154;2023-12-20T01:55:29;11.02;;;1.05;;
80584;SDS011;70137;56.482;9.154;2023-12-20T01:57:58;10.05;;;1.23;;
80584;SDS011;70137;56.482;9.154;2023-12-20T02:00:24;10.57;;;1.98;;
80584;SDS011;70137;56.482;9.154;2023-12-20T02:02:53;8.00;;;1.00;;
80584;SDS011;70137;56.482;9.154;2023-12-20T02:05:20;9.57;;;1.40;;
80584;SDS011;70137;56.482;9.154;2023-12-20T02:07:45;11.07;;;1.20;;
80584;SDS011;70137;56.482;9.154;2023-12-20T02:10:11;11.77;;;1.30;;
80584;SDS011;70137;56.482;9.154;2023-12-20T02:12:36;9.85;;;1.50;;
80584;SDS011;70137;56.482;9.154;2023-12-20T02:15:02;13.90;;;1.42;;
80584;SDS011;70137;56.482;9.154;2023-12-20T02:17:28;15.25;;;1.58;;
80584;SDS011;70137;56.482;9.154;2023-12-20T02:19:54;10.68;;;1.15;;
80584;SDS011;70137;56.482;9.154;2023-12-20T02:22:20;11.00;;;1.33;;
80584;SDS011;70137;56.482;9.154;2023-12-20T02:24:45;12.95;;;1.30;;
80584;SDS011;70137;56.482;9.154;2023-12-20T02:27:10;12.32;;;1.67;;
80584;SDS011;70137;56.482;9.154;2023-12-20T02:29:36;8.70;;;1.92;;
80584;SDS011;70137;56.482;9.154;2023-12-20T02:32:02;11.07;;;1.58;;
80584;SDS011;70137;56.482;9.154;2023-12-20T02:34:28;7.38;;;1.42;;
80584;SDS011;70137;56.482;9.154;2023-12-20T02:36:53;12.73;;;1.23;;
80584;SDS011;70137;56.482;9.154;2023-12-20T02:39:19;10.07;;;1.05;;
80584;SDS011;70137;56.482;9.154;2023-12-20T02:41:45;15.68;;;1.58;;
80584;SDS011;70137;56.482;9.154;2023-12-20T02:44:10;9.95;;;1.17;;
80584;SDS011;70137;56.482;9.154;2023-12-20T02:46:35;9.52;;;1.42;;
80584;SDS011;70137;56.482;9.154;2023-12-20T02:49:01;8.65;;;1.58;;
80584;SDS011;70137;56.482;9.154;2023-12-20T02:51:26;6.15;;;1.08;;
80584;SDS011;70137;56.482;9.154;2023-12-20T02:53:51;8.02;;;1.15;;
80584;SDS011;70137;56.482;9.154;2023-12-20T02:56:17;9.85;;;1.23;;
80584;SDS011;70137;56.482;9.154;2023-12-20T02:58:42;6.65;;;1.58;;
80584;SDS011;70137;56.482;9.154;2023-12-20T03:01:07;6.60;;;0.90;;
80584;SDS011;70137;56.482;9.154;2023-12-20T03:03:33;6.85;;;1.00;;
80584;SDS011;70137;56.482;9.154;2023-12-20T03:05:58;8.93;;;1.20;;
80584;SDS011;70137;56.482;9.154;2023-12-20T03:08:23;9.63;;;1.02;;
80584;SDS011;70137;56.482;9.154;2023-12-20T03:10:49;9.55;;;1.52;;
80584;SDS011;70137;56.482;9.154;2023-12-20T03:13:14;10.70;;;1.42;;
80584;SDS011;70137;56.482;9.154;2023-12-20T03:15:40;3.15;;;0.98;;
80584;SDS011;70137;56.482;9.154;2023-12-20T03:18:05;10.50;;;1.23;;
80584;SDS011;70137;56.482;9.154;2023-12-20T03:20:31;9.82;;;1.10;;
80584;SDS011;70137;56.482;9.154;2023-12-20T03:22:59;7.63;;;0.93;;
80584;SDS011;70137;56.482;9.154;2023-12-20T03:25:27;7.60;;;1.35;;
80584;SDS011;70137;56.482;9.154;2023-12-20T03:27:52;7.93;;;0.98;;
80584;SDS011;70137;56.482;9.154;2023-12-20T03:30:18;8.93;;;1.45;;
80584;SDS011;70137;56.482;9.154;2023-12-20T03:32:44;7.22;;;1.17;;
80584;SDS011;70137;56.482;9.154;2023-12-20T03:35:09;7.97;;;0.80;;
80584;SDS011;70137;56.482;9.154;2023-12-20T03:37:35;6.43;;;1.08;;
80584;SDS011;70137;56.482;9.154;2023-12-20T03:40:01;6.65;;;0.80;;
80584;SDS011;70137;56.482;9.154;2023-12-20T03:42:26;7.20;;;0.93;;
80584;SDS011;70137;56.482;9.154;2023-12-20T03:44:52;9.10;;;1.00;;
80584;SDS011;70137;56.482;9.154;2023-12-20T03:47:17;4.78;;;1.00;;
80584;SDS011;70137;56.482;9.154;2023-12-20T03:49:42;3.95;;;0.63;;
80584;SDS011;70137;56.482;9.154;2023-12-20T03:52:08;1.65;;;0.30;;
80584;SDS011;70137;56.482;9.154;2023-12-20T03:54:34;1.60;;;0.20;;
80584;SDS011;70137;56.482;9.154;2023-12-20T03:57:00;0.85;;;0.35;;
80584;SDS011;70137;56.482;9.154;2023-12-20T03:59:26;1.85;;;0.20;;
80584;SDS011;70137;56.482;9.154;2023-12-20T04:01:51;1.83;;;0.30;;
80584;SDS011;70137;56.482;9.154;2023-12-20T04:04:16;0.43;;;0.22;;
80584;SDS011;70137;56.482;9.154;2023-12-20T04:06:42;1.58;;;0.22;;
80584;SDS011;70137;56.482;9.154;2023-12-20T04:09:08;2.97;;;0.20;;
80584;SDS011;70137;56.482;9.154;2023-12-20T04:11:36;4.13;;;1.90;;
80584;SDS011;70137;56.482;9.154;2023-12-20T04:14:02;4.57;;;2.22;;
80584;SDS011;70137;56.482;9.154;2023-12-20T04:16:27;5.45;;;0.90;;
80584;SDS011;70137;56.482;9.154;2023-12-20T04:18:53;4.20;;;1.10;;
80584;SDS011;70137;56.482;9.154;2023-12-20T04:21:18;3.78;;;0.90;;
80584;SDS011;70137;56.482;9.154;2023-12-20T04:23:43;2.78;;;0.47;;
80584;SDS011;70137;56.482;9.154;2023-12-20T04:26:09;5.32;;;0.68;;
80584;SDS011;70137;56.482;9.154;2023-12-20T04:28:34;3.75;;;0.80;;
80584;SDS011;70137;56.482;9.154;2023-12-20T04:30:59;5.75;;;0.80;;
80584;SDS011;70137;56.482;9.154;2023-12-20T04:33:25;2.78;;;0.47;;
80584;SDS011;70137;56.482;9.154;2023-12-20T04:35:50;4.10;;;0.63;;
80584;SDS011;70137;56.482;9.154;2023-12-20T04:38:16;4.50;;;0.82;;
80584;SDS011;70137;56.482;9.154;2023-12-20T04:40:41;7.25;;;2.50;;
80584;SDS011;70137;56.482;9.154;2023-12-20T04:43:07;9.80;;;1.98;;
80584;SDS011;70137;56.482;9.154;2023-12-20T04:45:33;10.85;;;3.00;;
80584;SDS011;70137;56.482;9.154;2023-12-20T04:47:59;7.25;;;1.40;;
80584;SDS011;70137;56.482;9.154;2023-12-20T04:50:24;4.30;;;0.70;;
80584;SDS011;70137;56.482;9.154;2023-12-20T04:52:49;7.35;;;1.13;;
80584;SDS011;70137;56.482;9.154;2023-12-20T04:55:15;4.10;;;1.00;;
80584;SDS011;70137;56.482;9.154;2023-12-20T04:57:40;6.07;;;1.23;;
80584;SDS011;70137;56.482;9.154;2023-12-20T05:00:06;4.80;;;0.63;;
80584;SDS011;70137;56.482;9.154;2023-12-20T05:02:33;4.68;;;0.70;;
80584;SDS011;70137;56.482;9.154;2023-12-20T05:04:59;2.92;;;0.40;;
80584;SDS011;70137;56.482;9.154;2023-12-20T05:07:24;4.18;;;0.80;;
80584;SDS011;70137;56.482;9.154;2023-12-20T05:09:50;5.25;;;0.40;;
80584;SDS011;70137;56.482;9.154;2023-12-20T05:12:15;3.13;;;0.30;;
80584;SDS011;70137;56.482;9.154;2023-12-20T05:14:40;2.15;;;0.40;;
80584;SDS011;70137;56.482;9.154;2023-12-20T05:17:06;2.15;;;0.50;;
80584;SDS011;70137;56.482;9.154;2023-12-20T05:19:31;0.60;;;0.40;;
80584;SDS011;70137;56.482;9.154;2023-12-20T05:22:00;0.70;;;0.30;;
80584;SDS011;70137;56.482;9.154;2023-12-20T05:24:25;1.85;;;0.30;;
80584;SDS011;70137;56.482;9.154;2023-12-20T05:26:50;5.90;;;0.80;;
80584;SDS011;70137;56.482;9.154;2023-12-20T05:29:16;5.47;;;0.75;;
80584;SDS011;70137;56.482;9.154;2023-12-20T05:31:42;9.43;;;2.40;;
80584;SDS011;70137;56.482;9.154;2023-12-20T05:34:07;5.05;;;0.90;;
80584;SDS011;70137;56.482;9.154;2023-12-20T05:36:33;8.75;;;0.73;;
80584;SDS011;70137;56.482;9.154;2023-12-20T05:38:58;3.88;;;0.50;;
80584;SDS011;70137;56.482;9.154;2023-12-20T05:41:23;7.68;;;0.52;;
80584;SDS011;70137;56.482;9.154;2023-12-20T05:43:49;6.57;;;0.73;;
80584;SDS011;70137;56.482;9.154;2023-12-20T05:46:14;9.07;;;0.85;;
80584;SDS011;70137;56.482;9.154;2023-12-20T05:48:39;12.50;;;1.45;;
80584;SDS011;70137;56.482;9.154;2023-12-20T05:51:05;4.88;;;0.88;;
80584;SDS011;70137;56.482;9.154;2023-12-20T05:53:30;9.73;;;1.55;;
80584;SDS011;70137;56.482;9.154;2023-12-20T05:55:55;8.60;;;1.25;;
80584;SDS011;70137;56.482;9.154;2023-12-20T05:58:21;12.82;;;1.33;;
80584;SDS011;70137;56.482;9.154;2023-12-20T06:00:46;6.53;;;1.30;;
80584;SDS011;70137;56.482;9.154;2023-12-20T06:03:11;8.02;;;1.17;;
80584;SDS011;70137;56.482;9.154;2023-12-20T06:05:37;7.50;;;1.50;;
80584;SDS011;70137;56.482;9.154;2023-12-20T06:08:02;5.25;;;1.17;;
80584;SDS011;70137;56.482;9.154;2023-12-20T06:10:28;13.30;;;1.20;;
80584;SDS011;70137;56.482;9.154;2023-12-20T06:12:53;5.65;;;0.90;;
80584;SDS011;70137;56.482;9.154;2023-12-20T06:15:19;12.48;;;1.25;;
80584;SDS011;70137;56.482;9.154;2023-12-20T06:17:44;6.68;;;1.10;;
80584;SDS011;70137;56.482;9.154;2023-12-20T06:20:11;6.88;;;1.60;;
80584;SDS011;70137;56.482;9.154;2023-12-20T06:22:37;7.13;;;1.35;;
80584;SDS011;70137;56.482;9.154;2023-12-20T06:25:03;12.38;;;1.73;;
80584;SDS011;70137;56.482;9.154;2023-12-20T06:27:28;9.02;;;1.63;;
80584;SDS011;70137;56.482;9.154;2023-12-20T06:29:54;15.27;;;1.55;;
80584;SDS011;70137;56.482;9.154;2023-12-20T06:32:19;5.10;;;1.13;;
80584;SDS011;70137;56.482;9.154;2023-12-20T06:34:45;8.95;;;1.25;;
80584;SDS011;70137;56.482;9.154;2023-12-20T06:37:10;8.73;;;0.85;;
80584;SDS011;70137;56.482;9.154;2023-12-20T06:39:35;10.68;;;2.17;;
80584;SDS011;70137;56.482;9.154;2023-12-20T06:42:01;15.05;;;1.30;;
80584;SDS011;70137;56.482;9.154;2023-12-20T06:44:27;12.02;;;1.50;;
80584;SDS011;70137;56.482;9.154;2023-12-20T06:46:52;10.10;;;1.50;;
80584;SDS011;70137;56.482;9.154;2023-12-20T06:49:18;13.38;;;1.45;;
80584;SDS011;70137;56.482;9.154;2023-12-20T06:51:43;15.43;;;1.60;;
80584;SDS011;70137;56.482;9.154;2023-12-20T06:54:09;14.02;;;1.63;;
80584;SDS011;70137;56.482;9.154;2023-12-20T06:56:34;11.75;;;1.35;;
80584;SDS011;70137;56.482;9.154;2023-12-20T06:59:00;7.50;;;0.90;;
80584;SDS011;70137;56.482;9.154;2023-12-20T07:01:25;12.77;;;2.05;;
80584;SDS011;70137;56.482;9.154;2023-12-20T07:03:50;12.20;;;1.58;;
80584;SDS011;70137;56.482;9.154;2023-12-20T07:06:16;9.55;;;1.27;;
80584;SDS011;70137;56.482;9.154;2023-12-20T07:08:42;6.40;;;0.90;;
80584;SDS011;70137;56.482;9.154;2023-12-20T07:11:07;6.07;;;0.95;;
80584;SDS011;70137;56.482;9.154;2023-12-20T07:13:33;4.65;;;0.85;;
80584;SDS011;70137;56.482;9.154;2023-12-20T07:15:58;5.82;;;0.73;;
80584;SDS011;70137;56.482;9.154;2023-12-20T07:18:24;3.33;;;0.65;;
80584;SDS011;70137;56.482;9.154;2023-12-20T07:20:49;5.32;;;0.60;;
80584;SDS011;70137;56.482;9.154;2023-12-20T07:23:14;3.72;;;0.68;;
80584;SDS011;70137;56.482;9.154;2023-12-20T07:25:40;4.85;;;0.65;;
80584;SDS011;70137;56.482;9.154;2023-12-20T07:28:05;5.18;;;0.73;;
80584;SDS011;70137;56.482;9.154;2023-12-20T07:30:31;6.93;;;0.80;;
80584;SDS011;70137;56.482;9.154;2023-12-20T07:32:56;8.68;;;1.05;;
80584;SDS011;70137;56.482;9.154;2023-12-20T07:35:23;6.32;;;1.90;;
80584;SDS011;70137;56.482;9.154;2023-12-20T07:37:48;8.18;;;1.80;;
80584;SDS011;70137;56.482;9.154;2023-12-20T07:40:14;12.82;;;2.95;;
80584;SDS011;70137;56.482;9.154;2023-12-20T07:42:41;8.40;;;1.55;;
80584;SDS011;70137;56.482;9.154;2023-12-20T07:45:07;6.03;;;1.10;;
80584;SDS011;70137;56.482;9.154;2023-12-20T07:47:32;10.32;;;1.00;;
80584;SDS011;70137;56.482;9.154;2023-12-20T07:49:58;5.03;;;0.82;;
80584;SDS011;70137;56.482;9.154;2023-12-20T07:52:23;4.82;;;1.05;;
80584;SDS011;70137;56.482;9.154;2023-12-20T07:54:48;6.03;;;0.90;;
80584;SDS011;70137;56.482;9.154;2023-12-20T07:57:14;6.18;;;1.50;;
80584;SDS011;70137;56.482;9.154;2023-12-20T07:59:39;5.75;;;1.67;;
80584;SDS011;70137;56.482;9.154;2023-12-20T08:02:04;8.48;;;2.28;;
80584;SDS011;70137;56.482;9.154;2023-12-20T08:04:30;6.57;;;1.88;;
80584;SDS011;70137;56.482;9.154;2023-12-20T08:06:56;7.28;;;1.15;;
80584;SDS011;70137;56.482;9.154;2023-12-20T08:09:21;7.25;;;1.10;;
80584;SDS011;70137;56.482;9.154;2023-12-20T08:11:47;6.13;;;1.83;;
80584;SDS011;70137;56.482;9.154;2023-12-20T08:14:13;9.95;;;1.02;;
80584;SDS011;70137;56.482;9.154;2023-12-20T08:16:39;8.50;;;1.60;;
80584;SDS011;70137;56.482;9.154;2023-12-20T08:19:04;6.90;;;1.73;;
80584;SDS011;70137;56.482;9.154;2023-12-20T08:21:29;7.53;;;1.30;;
80584;SDS011;70137;56.482;9.154;2023-12-20T08:23:55;5.18;;;0.80;;
80584;SDS011;70137;56.482;9.154;2023-12-20T08:26:20;8.85;;;0.85;;
80584;SDS011;70137;56.482;9.154;2023-12-20T08:28:47;7.07;;;0.93;;
80584;SDS011;70137;56.482;9.154;2023-12-20T08:31:17;6.47;;;0.98;;
80584;SDS011;70137;56.482;9.154;2023-12-20T08:33:44;9.85;;;1.55;;
80584;SDS011;70137;56.482;9.154;2023-12-20T08:36:10;3.05;;;0.88;;
80584;SDS011;70137;56.482;9.154;2023-12-20T08:38:35;7.70;;;0.93;;
80584;SDS011;70137;56.482;9.154;2023-12-20T08:41:01;8.68;;;0.98;;
80584;SDS011;70137;56.482;9.154;2023-12-20T08:43:28;6.20;;;0.90;;
80584;SDS011;70137;56.482;9.154;2023-12-20T08:45:53;4.68;;;1.10;;
80584;SDS011;70137;56.482;9.154;2023-12-20T08:48:19;8.10;;;1.13;;
80584;SDS011;70137;56.482;9.154;2023-12-20T08:50:44;10.18;;;1.10;;
80584;SDS011;70137;56.482;9.154;2023-12-20T08:53:10;7.18;;;0.93;;
80584;SDS011;70137;56.482;9.154;2023-12-20T08:55:36;6.25;;;0.80;;
80584;SDS011;70137;56.482;9.154;2023-12-20T08:58:02;6.88;;;0.80;;
80584;SDS011;70137;56.482;9.154;2023-12-20T09:00:27;5.75;;;0.80;;
80584;SDS011;70137;56.482;9.154;2023-12-20T09:02:53;3.78;;;0.50;;
80584;SDS011;70137;56.482;9.154;2023-12-20T09:05:19;7.47;;;1.38;;
80584;SDS011;70137;56.482;9.154;2023-12-20T09:07:45;6.70;;;1.80;;
80584;SDS011;70137;56.482;9.154;2023-12-20T09:10:10;6.68;;;1.70;;
80584;SDS011;70137;56.482;9.154;2023-12-20T09:12:35;6.43;;;1.27;;
80584;SDS011;70137;56.482;9.154;2023-12-20T09:15:04;5.40;;;0.95;;
80584;SDS011;70137;56.482;9.154;2023-12-20T09:17:30;5.85;;;1.10;;
80584;SDS011;70137;56.482;9.154;2023-12-20T09:19:56;6.03;;;1.10;;
80584;SDS011;70137;56.482;9.154;2023-12-20T09:22:21;5.20;;;1.40;;
80584;SDS011;70137;56.482;9.154;2023-12-20T09:24:46;5.35;;;0.93;;
80584;SDS011;70137;56.482;9.154;2023-12-20T09:27:12;5.57;;;1.35;;
80584;SDS011;70137;56.482;9.154;2023-12-20T09:29:37;4.82;;;1.08;;
80584;SDS011;70137;56.482;9.154;2023-12-20T09:32:03;6.20;;;1.95;;
80584;SDS011;70137;56.482;9.154;2023-12-20T09:34:28;4.25;;;1.25;;
80584;SDS011;70137;56.482;9.154;2023-12-20T09:36:54;3.75;;;0.88;;
80584;SDS011;70137;56.482;9.154;2023-12-20T09:39:20;8.55;;;1.23;;
80584;SDS011;70137;56.482;9.154;2023-12-20T09:44:28;4.40;;;0.77;;
80584;SDS011;70137;56.482;9.154;2023-12-20T09:46:55;3.70;;;0.60;;
80584;SDS011;70137;56.482;9.154;2023-12-20T09:49:21;4.93;;;0.80;;
80584;SDS011;70137;56.482;9.154;2023-12-20T09:51:47;4.28;;;1.13;;
80584;SDS011;70137;56.482;9.154;2023-12-20T09:54:16;3.97;;;0.80;;
80584;SDS011;70137;56.482;9.154;2023-12-20T09:56:42;4.95;;;0.80;;
80584;SDS011;70137;56.482;9.154;2023-12-20T09:59:08;4.10;;;0.93;;
80584;SDS011;70137;56.482;9.154;2023-12-20T10:01:34;4.45;;;0.80;;
80584;SDS011;70137;56.482;9.154;2023-12-20T10:04:00;6.00;;;1.20;;
80584;SDS011;70137;56.482;9.154;2023-12-20T10:06:31;2.97;;;0.90;;
80584;SDS011;70137;56.482;9.154;2023-12-20T10:08:57;5.65;;;1.23;;
80584;SDS011;70137;56.482;9.154;2023-12-20T10:11:22;7.53;;;0.90;;
80584;SDS011;70137;56.482;9.154;2023-12-20T10:13:47;5.53;;;0.95;;
80584;SDS011;70137;56.482;9.154;2023-12-20T10:16:13;7.38;;;1.08;;
80584;SDS011;70137;56.482;9.154;2023-12-20T10:18:39;9.80;;;1.38;;
80584;SDS011;70137;56.482;9.154;2023-12-20T10:21:04;7.75;;;1.45;;
80584;SDS011;70137;56.482;9.154;2023-12-20T10:23:31;4.32;;;1.20;;
80584;SDS011;70137;56.482;9.154;2023-12-20T10:25:59;4.20;;;0.85;;
80584;SDS011;70137;56.482;9.154;2023-12-20T10:28:25;7.35;;;1.20;;
80584;SDS011;70137;56.482;9.154;2023-12-20T10:30:54;5.20;;;0.95;;
80584;SDS011;70137;56.482;9.154;2023-12-20T10:35:51;2.60;;;0.73;;
80584;SDS011;70137;56.482;9.154;2023-12-20T10:38:18;7.45;;;1.38;;
80584;SDS011;70137;56.482;9.154;2023-12-20T10:40:43;7.88;;;1.65;;
80584;SDS011;70137;56.482;9.154;2023-12-20T10:43:10;12.20;;;2.28;;
80584;SDS011;70137;56.482;9.154;2023-12-20T10:45:36;9.32;;;1.77;;
80584;SDS011;70137;56.482;9.154;2023-12-20T10:48:02;5.10;;;1.25;;
80584;SDS011;70137;56.482;9.154;2023-12-20T10:50:28;8.88;;;2.05;;
80584;SDS011;70137;56.482;9.154;2023-12-20T10:52:55;9.70;;;1.73;;
80584;SDS011;70137;56.482;9.154;2023-12-20T10:55:21;10.80;;;1.80;;
80584;SDS011;70137;56.482;9.154;2023-12-20T10:57:47;8.63;;;1.60;;
80584;SDS011;70137;56.482;9.154;2023-12-20T11:00:16;5.80;;;1.40;;
80584;SDS011;70137;56.482;9.154;2023-12-20T11:02:43;11.18;;;1.92;;
80584;SDS011;70137;56.482;9.154;2023-12-20T11:05:44;8.32;;;1.70;;
80584;SDS011;70137;56.482;9.154;2023-12-20T11:08:17;13.57;;;1.75;;
80584;SDS011;70137;56.482;9.154;2023-12-20T11:10:59;11.32;;;2.60;;
80584;SDS011;70137;56.482;9.154;2023-12-20T11:13:32;13.52;;;2.40;;
80584;SDS011;70137;56.482;9.154;2023-12-20T11:16:02;9.75;;;2.75;;
80584;SDS011;70137;56.482;9.154;2023-12-20T11:18:29;10.32;;;2.55;;
80584;SDS011;70137;56.482;9.154;2023-12-20T11:20:55;10.63;;;2.80;;
80584;SDS011;70137;56.482;9.154;2023-12-20T11:23:25;6.80;;;2.35;;
80584;SDS011;70137;56.482;9.154;2023-12-20T11:25:55;7.15;;;1.85;;
80584;SDS011;70137;56.482;9.154;2023-12-20T11:28:23;3.40;;;1.80;;
80584;SDS011;70137;56.482;9.154;2023-12-20T11:30:51;4.38;;;1.83;;
80584;SDS011;70137;56.482;9.154;2023-12-20T11:33:24;3.25;;;2.08;;
80584;SDS011;70137;56.482;9.154;2023-12-20T11:35:51;5.32;;;2.28;;
80584;SDS011;70137;56.482;9.154;2023-12-20T11:38:19;8.02;;;2.83;;
80584;SDS011;70137;56.482;9.154;2023-12-20T11:40:45;9.15;;;3.25;;
80584;SDS011;70137;56.482;9.154;2023-12-20T11:43:23;8.80;;;2.42;;
80584;SDS011;70137;56.482;9.154;2023-12-20T11:45:54;9.70;;;3.03;;
80584;SDS011;70137;56.482;9.154;2023-12-20T11:48:20;8.23;;;3.38;;
80584;SDS011;70137;56.482;9.154;2023-12-20T11:50:46;7.07;;;2.90;;
80584;SDS011;70137;56.482;9.154;2023-12-20T11:53:11;7.80;;;2.63;;
80584;SDS011;70137;56.482;9.154;2023-12-20T11:55:37;7.25;;;2.58;;
80584;SDS011;70137;56.482;9.154;2023-12-20T11:58:02;7.57;;;3.25;;
80584;SDS011;70137;56.482;9.154;2023-12-20T12:00:28;6.07;;;2.70;;
80584;SDS011;70137;56.482;9.154;2023-12-20T12:03:00;6.18;;;2.72;;
80584;SDS011;70137;56.482;9.154;2023-12-20T12:05:27;7.88;;;2.35;;
80584;SDS011;70137;56.482;9.154;2023-12-20T12:07:53;8.85;;;2.42;;
80584;SDS011;70137;56.482;9.154;2023-12-20T12:10:18;7.75;;;2.42;;
80584;SDS011;70137;56.482;9.154;2023-12-20T12:12:44;12.57;;;3.08;;
80584;SDS011;70137;56.482;9.154;2023-12-20T12:15:09;14.15;;;3.90;;
80584;SDS011;70137;56.482;9.154;2023-12-20T12:17:35;11.70;;;3.50;;
80584;SDS011;70137;56.482;9.154;2023-12-20T12:20:04;9.52;;;3.03;;
80584;SDS011;70137;56.482;9.154;2023-12-20T12:22:30;9.52;;;2.92;;
80584;SDS011;70137;56.482;9.154;2023-12-20T12:24:58;13.23;;;3.20;;
80584;SDS011;70137;56.482;9.154;2023-12-20T12:27:24;16.40;;;3.63;;
80584;SDS011;70137;56.482;9.154;2023-12-20T12:30:02;10.88;;;3.30;;
80584;SDS011;70137;56.482;9.154;2023-12-20T12:32:32;13.88;;;2.65;;
80584;SDS011;70137;56.482;9.154;2023-12-20T12:34:57;16.40;;;3.22;;
80584;SDS011;70137;56.482;9.154;2023-12-20T12:37:22;17.20;;;3.55;;
80584;SDS011;70137;56.482;9.154;2023-12-20T12:39:49;8.85;;;3.13;;
80584;SDS011;70137;56.482;9.154;2023-12-20T12:42:14;17.88;;;2.90;;
80584;SDS011;70137;56.482;9.154;2023-12-20T12:44:40;16.02;;;3.10;;
80584;SDS011;70137;56.482;9.154;2023-12-20T12:47:05;14.20;;;3.35;;
80584;SDS011;70137;56.482;9.154;2023-12-20T12:49:31;10.95;;;2.80;;
80584;SDS011;70137;56.482;9.154;2023-12-20T12:51:57;13.63;;;2.83;;
80584;SDS011;70137;56.482;9.154;2023-12-20T12:54:23;17.55;;;3.20;;
80584;SDS011;70137;56.482;9.154;2023-12-20T12:56:49;13.70;;;2.20;;
80584;SDS011;70137;56.482;9.154;2023-12-20T12:59:15;9.48;;;2.58;;
80584;SDS011;70137;56.482;9.154;2023-12-20T13:01:41;14.02;;;3.10;;
80584;SDS011;70137;56.482;9.154;2023-12-20T13:04:06;13.98;;;2.90;;
80584;SDS011;70137;56.482;9.154;2023-12-20T13:06:35;8.43;;;2.80;;
80584;SDS011;70137;56.482;9.154;2023-12-20T13:09:04;10.18;;;2.42;;
80584;SDS011;70137;56.482;9.154;2023-12-20T13:11:34;12.38;;;2.78;;
80584;SDS011;70137;56.482;9.154;2023-12-20T13:13:59;14.60;;;2.80;;
80584;SDS011;70137;56.482;9.154;2023-12-20T13:16:25;12.98;;;3.03;;
80584;SDS011;70137;56.482;9.154;2023-12-20T13:18:51;14.50;;;3.13;;
80584;SDS011;70137;56.482;9.154;2023-12-20T13:21:16;15.93;;;2.70;;
80584;SDS011;70137;56.482;9.154;2023-12-20T13:23:42;11.18;;;2.20;;
80584;SDS011;70137;56.482;9.154;2023-12-20T13:26:07;10.73;;;2.35;;
80584;SDS011;70137;56.482;9.154;2023-12-20T13:28:33;5.78;;;2.22;;
80584;SDS011;70137;56.482;9.154;2023-12-20T13:30:58;11.57;;;2.33;;
80584;SDS011;70137;56.482;9.154;2023-12-20T13:33:23;8.00;;;2.40;;
80584;SDS011;70137;56.482;9.154;2023-12-20T13:35:49;13.25;;;2.83;;
80584;SDS011;70137;56.482;9.154;2023-12-20T13:38:14;12.90;;;2.47;;
80584;SDS011;70137;56.482;9.154;2023-12-20T13:40:40;10.82;;;2.67;;
80584;SDS011;70137;56.482;9.154;2023-12-20T13:43:05;15.52;;;2.17;;
80584;SDS011;70137;56.482;9.154;2023-12-20T13:45:31;14.60;;;3.28;;
80584;SDS011;70137;56.482;9.154;2023-12-20T13:47:56;9.77;;;1.88;;
80584;SDS011;70137;56.482;9.154;2023-12-20T13:50:22;11.25;;;2.03;;
80584;SDS011;70137;56.482;9.154;2023-12-20T13:52:47;5.78;;;1.77;;
80584;SDS011;70137;56.482;9.154;2023-12-20T13:55:13;4.40;;;0.95;;
80584;SDS011;70137;56.482;9.154;2023-12-20T13:57:38;6.63;;;1.55;;
80584;SDS011;70137;56.482;9.154;2023-12-20T14:00:05;5.88;;;1.58;;
80584;SDS011;70137;56.482;9.154;2023-12-20T14:02:30;7.88;;;1.67;;
80584;SDS011;70137;56.482;9.154;2023-12-20T14:04:56;7.68;;;1.83;;
80584;SDS011;70137;56.482;9.154;2023-12-20T14:07:21;5.75;;;1.45;;
80584;SDS011;70137;56.482;9.154;2023-12-20T14:09:46;5.35;;;1.40;;
80584;SDS011;70137;56.482;9.154;2023-12-20T14:12:12;4.85;;;1.40;;
80584;SDS011;70137;56.482;9.154;2023-12-20T14:14:38;8.50;;;1.63;;
80584;SDS011;70137;56.482;9.154;2023-12-20T14:17:03;7.43;;;2.08;;
80584;SDS011;70137;56.482;9.154;2023-12-20T14:19:31;10.75;;;1.90;;
80584;SDS011;70137;56.482;9.154;2023-12-20T14:21:57;7.28;;;1.45;;
80584;SDS011;70137;56.482;9.154;2023-12-20T14:24:26;6.47;;;1.95;;
80584;SDS011;70137;56.482;9.154;2023-12-20T14:26:51;5.68;;;1.83;;
80584;SDS011;70137;56.482;9.154;2023-12-20T14:29:17;9.43;;;2.20;;
80584;SDS011;70137;56.482;9.154;2023-12-20T14:31:42;11.32;;;2.03;;
80584;SDS011;70137;56.482;9.154;2023-12-20T14:34:07;9.43;;;2.00;;
80584;SDS011;70137;56.482;9.154;2023-12-20T14:36:34;9.27;;;1.90;;
80584;SDS011;70137;56.482;9.154;2023-12-20T14:38:59;12.77;;;1.90;;
80584;SDS011;70137;56.482;9.154;2023-12-20T14:41:26;10.25;;;1.75;;